Time;durP1;ratioP1;P1;durP2;ratioP2;P2;SDS_P1;SDS_P2;PMS_P1;PMS_P2;Temp;Humidity;BMP_temperature;BMP_pressure;BME280_temperature;BME280_humidity;BME280_pressure;Samples;Min_cycle;Max_cycle;Signal;HPM_P1;HPM_P2
2021/06/14 00:00:43;;;;;;;8.95;4.32;;;12.80;94.90;;;;;;4957036;28;20040;-74
2021/06/14 00:03:09;;;;;;;8.27;4.70;;;12.80;95.10;;;;;;4956604;28;20043;-75
2021/06/14 00:05:37;;;;;;;6.72;3.78;;;12.70;95.60;;;;;;4956618;28;20138;-75
2021/06/14 00:08:06;;;;;;;6.45;4.00;;;12.70;95.70;;;;;;4965694;28;20042;-75
2021/06/14 00:10:33;;;;;;;9.00;4.57;;;12.70;95.90;;;;;;4964760;28;20036;-75
2021/06/14 00:13:01;;;;;;;6.57;4.20;;;12.70;95.50;;;;;;4956896;28;20058;-75
2021/06/14 00:15:28;;;;;;;8.20;3.88;;;12.60;96.00;;;;;;4957235;28;20039;-74
2021/06/14 00:17:56;;;;;;;8.50;4.30;;;12.60;96.20;;;;;;4956712;28;20042;-74
2021/06/14 00:20:23;;;;;;;6.20;4.68;;;12.40;96.70;;;;;;4957343;28;20050;-75
2021/06/14 00:22:50;;;;;;;7.15;4.57;;;12.40;96.90;;;;;;4956638;28;20028;-73
2021/06/14 00:25:21;;;;;;;9.27;5.18;;;12.20;97.20;;;;;;4956902;28;20046;-74
2021/06/14 00:27:48;;;;;;;5.40;4.13;;;12.10;97.30;;;;;;4957155;28;20035;-74
2021/06/14 00:30:21;;;;;;;7.63;3.83;;;12.30;97.90;;;;;;4959845;28;20046;-76
2021/06/14 00:32:48;;;;;;;8.00;4.53;;;12.30;97.80;;;;;;4956698;28;20076;-75
2021/06/14 00:35:14;;;;;;;8.45;5.47;;;12.30;98.60;;;;;;4956749;28;20465;-75
2021/06/14 00:37:40;;;;;;;6.93;4.10;;;12.40;98.10;;;;;;4956531;28;20046;-75
2021/06/14 00:40:07;;;;;;;5.55;3.83;;;12.40;97.80;;;;;;4963219;28;20031;-76
2021/06/14 00:42:33;;;;;;;8.05;4.68;;;12.40;98.20;;;;;;4969435;28;20054;-73
2021/06/14 00:45:00;;;;;;;7.45;4.15;;;12.50;97.90;;;;;;4971823;28;20050;-75
2021/06/14 00:47:26;;;;;;;7.97;5.40;;;12.40;98.10;;;;;;4965170;28;20035;-74
2021/06/14 00:49:53;;;;;;;6.35;4.78;;;12.40;98.30;;;;;;4973296;28;20050;-74
2021/06/14 00:52:19;;;;;;;6.88;4.38;;;12.30;98.80;;;;;;4973579;28;20050;-75
2021/06/14 00:54:46;;;;;;;10.93;4.57;;;12.20;99.10;;;;;;4973643;28;20035;-75
2021/06/14 00:57:12;;;;;;;8.80;4.57;;;12.20;99.50;;;;;;4972588;28;20058;-74
2021/06/14 00:59:39;;;;;;;7.65;4.50;;;12.10;99.80;;;;;;4973306;28;20411;-74
2021/06/14 01:02:05;;;;;;;7.05;4.53;;;12.00;99.90;;;;;;4972710;28;20043;-74
2021/06/14 01:04:33;;;;;;;8.30;5.28;;;11.90;99.90;;;;;;4958470;28;20172;-74
2021/06/14 01:06:59;;;;;;;7.10;4.47;;;11.90;99.90;;;;;;4968514;28;20512;-75
2021/06/14 01:09:26;;;;;;;12.07;4.75;;;11.80;99.90;;;;;;4946879;29;20405;-74
2021/06/14 01:12:08;;;;;;;6.10;4.78;;;11.70;99.90;;;;;;4963286;28;20093;-74
2021/06/14 01:14:51;;;;;;;5.88;4.78;;;11.70;99.90;;;;;;4962303;28;20027;-74
2021/06/14 01:17:33;;;;;;;6.25;4.57;;;11.40;99.90;;;;;;4969371;28;20038;-75
2021/06/14 01:20:33;;;;;;;7.53;4.47;;;11.40;99.90;;;;;;4969580;28;20533;-75
2021/06/14 01:23:18;;;;;;;8.95;4.85;;;11.30;99.90;;;;;;4955270;28;20043;-77
2021/06/14 01:26:01;;;;;;;8.50;5.45;;;11.30;99.90;;;;;;4966312;28;20055;-75
2021/06/14 01:28:33;;;;;;;6.78;5.15;;;11.50;99.90;;;;;;4973314;28;20065;-76
2021/06/14 01:31:04;;;;;;;7.97;5.00;;;11.40;99.90;;;;;;4958007;28;20420;-75
2021/06/14 01:33:34;;;;;;;8.00;4.70;;;11.40;99.90;;;;;;4965750;28;20035;-75
2021/06/14 01:36:19;;;;;;;10.65;5.13;;;11.30;99.90;;;;;;4972316;28;20070;-74
2021/06/14 01:38:48;;;;;;;10.38;5.05;;;11.20;99.90;;;;;;4972299;28;20043;-75
2021/06/14 01:41:20;;;;;;;7.15;4.60;;;11.20;99.90;;;;;;4972910;28;20069;-75
2021/06/14 01:43:48;;;;;;;11.98;5.13;;;11.10;99.90;;;;;;4968817;28;20409;-76
2021/06/14 01:46:30;;;;;;;7.70;4.50;;;11.00;99.90;;;;;;4969489;28;20079;-74
2021/06/14 01:49:02;;;;;;;7.20;5.63;;;11.00;99.90;;;;;;4971558;28;20377;-75
2021/06/14 01:51:31;;;;;;;5.97;4.25;;;11.10;99.90;;;;;;4972426;28;20046;-76
2021/06/14 01:54:08;;;;;;;7.85;5.07;;;11.20;99.90;;;;;;4969596;28;20043;-74
2021/06/14 01:56:52;;;;;;;9.43;4.88;;;11.20;99.90;;;;;;4957814;28;20043;-75
2021/06/14 01:59:28;;;;;;;7.20;4.68;;;11.20;99.90;;;;;;4968433;28;20042;-75
2021/06/14 02:01:58;;;;;;;7.60;4.97;;;11.20;99.90;;;;;;4954634;28;20028;-74
2021/06/14 02:04:26;;;;;;;10.52;5.18;;;11.00;99.90;;;;;;4960945;28;20046;-76
2021/06/14 02:07:16;;;;;;;6.38;5.68;;;11.00;99.90;;;;;;4971925;28;20381;-75
2021/06/14 02:09:44;;;;;;;6.75;4.43;;;10.80;99.90;;;;;;4959054;28;20544;-75
2021/06/14 02:12:10;;;;;;;7.32;5.40;;;10.70;99.90;;;;;;4954746;28;20489;-75
2021/06/14 02:14:41;;;;;;;9.10;5.40;;;10.60;99.90;;;;;;4969381;28;20039;-75
2021/06/14 02:17:13;;;;;;;6.70;5.15;;;10.50;99.90;;;;;;4960557;28;20047;-75
2021/06/14 02:19:42;;;;;;;6.65;5.03;;;10.60;99.90;;;;;;4970704;28;20043;-75
2021/06/14 02:22:14;;;;;;;7.43;5.47;;;10.60;99.90;;;;;;4968307;28;20436;-75
2021/06/14 02:24:41;;;;;;;7.72;4.18;;;10.50;99.90;;;;;;4954511;28;20484;-74
2021/06/14 02:27:11;;;;;;;7.32;5.20;;;10.40;99.90;;;;;;4960446;28;20051;-74
2021/06/14 02:29:39;;;;;;;8.85;5.20;;;10.40;99.90;;;;;;4971891;28;20377;-74
2021/06/14 02:32:05;;;;;;;7.95;5.25;;;10.40;99.90;;;;;;4954453;28;20043;-75
2021/06/14 02:34:32;;;;;;;6.18;4.90;;;10.40;99.90;;;;;;4972418;28;20039;-75
2021/06/14 02:37:01;;;;;;;8.20;5.22;;;10.60;99.90;;;;;;4954768;28;20047;-74
2021/06/14 02:39:30;;;;;;;;;;;10.70;99.90;;;;;;4965102;28;20050;-74
2021/06/14 02:41:58;;;;;;;9.18;5.38;;;10.80;99.90;;;;;;4965013;28;19917;-75
2021/06/14 02:44:30;;;;;;;8.25;4.95;;;10.80;99.90;;;;;;4959453;28;20038;-75
2021/06/14 02:47:04;;;;;;;8.45;5.13;;;10.70;99.90;;;;;;4958115;28;20042;-74
2021/06/14 02:49:31;;;;;;;8.90;5.70;;;10.70;99.90;;;;;;4967188;28;20028;-74
2021/06/14 02:52:00;;;;;;;10.45;6.22;;;10.60;99.90;;;;;;4960958;28;20031;-74
2021/06/14 02:54:34;;;;;;;7.88;5.35;;;10.60;99.90;;;;;;4961444;28;20043;-75
2021/06/14 02:57:02;;;;;;;8.50;6.03;;;10.60;99.90;;;;;;4964322;28;20512;-74
2021/06/14 02:59:30;;;;;;;9.45;4.97;;;10.60;99.90;;;;;;4952798;28;20051;-74
2021/06/14 03:01:58;;;;;;;10.32;6.03;;;10.50;99.90;;;;;;4970930;28;20042;-74
2021/06/14 03:04:26;;;;;;;11.80;5.97;;;10.40;99.90;;;;;;4970692;28;20053;-74
2021/06/14 03:06:53;;;;;;;9.15;6.35;;;10.40;99.90;;;;;;4952308;28;20507;-74
2021/06/14 03:09:23;;;;;;;8.68;5.63;;;10.30;99.90;;;;;;4954427;28;20047;-75
2021/06/14 03:11:52;;;;;;;8.45;6.85;;;10.30;99.90;;;;;;4954145;28;20031;-75
2021/06/14 03:14:22;;;;;;;11.23;6.00;;;10.40;99.90;;;;;;4961282;28;20050;-74
2021/06/14 03:16:49;;;;;;;9.25;5.68;;;10.30;99.90;;;;;;4959939;28;20445;-74
2021/06/14 03:19:21;;;;;;;11.15;5.82;;;10.30;99.90;;;;;;4954116;28;20051;-75
2021/06/14 03:21:47;;;;;;;11.82;6.43;;;10.40;99.90;;;;;;4969067;28;20036;-75
2021/06/14 03:24:18;;;;;;;9.10;5.97;;;10.40;99.90;;;;;;4952910;28;20477;-76
2021/06/14 03:26:46;;;;;;;9.27;6.05;;;10.50;99.90;;;;;;4958687;28;20058;-75
2021/06/14 03:29:19;;;;;;;8.00;6.03;;;10.50;99.90;;;;;;4968735;28;20047;-76
2021/06/14 03:31:50;;;;;;;9.15;6.25;;;10.50;99.90;;;;;;4955149;28;20386;-74
2021/06/14 03:34:17;;;;;;;9.95;6.03;;;10.50;99.90;;;;;;4957697;29;20031;-74
2021/06/14 03:36:45;;;;;;;10.63;6.40;;;10.60;99.90;;;;;;4958187;28;20509;-75
2021/06/14 03:39:15;;;;;;;10.07;7.03;;;10.70;99.90;;;;;;4957069;28;20032;-74
2021/06/14 03:41:49;;;;;;;8.15;6.22;;;10.70;99.90;;;;;;4957833;28;20054;-74
2021/06/14 03:44:17;;;;;;;11.90;6.40;;;10.70;99.90;;;;;;4957022;28;20035;-75
2021/06/14 03:46:43;;;;;;;13.00;6.20;;;10.70;99.90;;;;;;4974871;28;20473;-75
2021/06/14 03:49:09;;;;;;;9.52;5.97;;;10.70;99.90;;;;;;4968094;28;20038;-74
2021/06/14 03:51:38;;;;;;;10.93;5.65;;;10.60;99.90;;;;;;4964785;28;20042;-74
2021/06/14 03:54:05;;;;;;;10.85;6.68;;;10.60;99.90;;;;;;4957489;28;20397;-74
2021/06/14 03:56:34;;;;;;;12.27;6.03;;;10.60;99.90;;;;;;4968800;28;20393;-76
2021/06/14 03:59:00;;;;;;;9.30;5.90;;;10.60;99.90;;;;;;4965241;28;20474;-74
2021/06/14 04:01:30;;;;;;;9.52;6.38;;;10.70;99.90;;;;;;4957286;28;20031;-74
2021/06/14 04:06:51;;;;;;;12.82;6.75;;;10.60;99.90;;;;;;4960902;28;20051;-74
2021/06/14 04:09:17;;;;;;;9.20;5.40;;;10.60;99.90;;;;;;4972988;28;20054;-74
2021/06/14 04:11:44;;;;;;;11.13;7.18;;;10.60;99.90;;;;;;4957295;28;20031;-75
2021/06/14 04:14:10;;;;;;;12.43;6.80;;;10.70;99.90;;;;;;4956863;28;20039;-75
2021/06/14 04:16:37;;;;;;;8.00;5.70;;;10.80;99.90;;;;;;4956535;28;20043;-74
2021/06/14 04:19:03;;;;;;;12.48;6.13;;;11.20;99.90;;;;;;4963628;28;20034;-75
2021/06/14 04:21:29;;;;;;;8.18;5.53;;;12.20;99.90;;;;;;4968875;28;20032;-74
2021/06/14 04:23:56;;;;;;;7.00;4.80;;;13.30;99.90;;;;;;4956205;28;20035;-74
2021/06/14 04:26:22;;;;;;;5.38;3.75;;;14.10;99.90;;;;;;4967083;28;20042;-75
2021/06/14 04:28:48;;;;;;;5.28;4.10;;;14.60;99.40;;;;;;4974887;28;20495;-75
2021/06/14 04:31:14;;;;;;;7.95;4.07;;;15.40;96.10;;;;;;4974494;28;20051;-75
2021/06/14 04:33:41;;;;;;;6.10;3.78;;;15.90;93.60;;;;;;4961608;28;20046;-75
2021/06/14 04:36:07;;;;;;;5.32;3.78;;;16.20;92.00;;;;;;4963680;28;20520;-75
2021/06/14 04:38:34;;;;;;;5.05;3.40;;;16.30;91.00;;;;;;4956997;29;20031;-74
2021/06/14 04:41:00;;;;;;;6.93;3.92;;;16.40;90.20;;;;;;4961837;28;20027;-78
2021/06/14 04:43:26;;;;;;;5.00;3.35;;;16.30;89.70;;;;;;4964452;28;20032;-76
2021/06/14 04:45:53;;;;;;;6.57;3.45;;;15.80;90.80;;;;;;4956063;28;20050;-76
2021/06/14 04:48:22;;;;;;;4.80;3.10;;;16.00;90.50;;;;;;4976060;28;20050;-76
2021/06/14 04:50:51;;;;;;;6.88;3.95;;;16.70;88.60;;;;;;4958166;28;20031;-74
2021/06/14 04:53:18;;;;;;;4.17;3.00;;;17.80;83.90;;;;;;4959282;28;20027;-86
2021/06/14 04:55:44;;;;;;;6.30;3.40;;;18.20;80.80;;;;;;4956382;28;20376;-76
2021/06/14 04:58:10;;;;;;;6.13;3.08;;;18.70;77.50;;;;;;4956282;28;20050;-78
2021/06/14 05:00:38;;;;;;;4.97;3.50;;;18.70;76.00;;;;;;4990860;28;20039;-77
2021/06/14 05:03:04;;;;;;;5.05;3.45;;;18.80;77.10;;;;;;4973145;28;20043;-77
2021/06/14 05:05:31;;;;;;;6.50;3.05;;;19.60;73.20;;;;;;4956460;28;20035;-74
2021/06/14 05:07:57;;;;;;;4.85;3.53;;;20.30;70.30;;;;;;4955811;28;20047;-78
2021/06/14 05:10:23;;;;;;;7.85;3.38;;;20.70;67.70;;;;;;4955981;28;20047;-77
2021/06/14 05:12:52;;;;;;;4.60;3.25;;;21.30;65.10;;;;;;4973750;28;20053;-77
2021/06/14 05:15:18;;;;;;;10.57;3.03;;;20.90;66.10;;;;;;4968334;28;20031;-77
2021/06/14 05:17:45;;;;;;;3.75;2.50;;;20.30;67.50;;;;;;4958117;28;20038;-76
2021/06/14 05:20:12;;;;;;;6.53;3.45;;;20.20;67.80;;;;;;4973399;28;20031;-76
2021/06/14 05:22:38;;;;;;;5.70;2.72;;;20.20;67.10;;;;;;4964207;28;20035;-76
2021/06/14 05:25:05;;;;;;;7.47;3.47;;;20.10;67.90;;;;;;4965513;28;20034;-77
2021/06/14 05:27:31;;;;;;;6.75;3.08;;;20.10;68.10;;;;;;4957515;28;20039;-77
2021/06/14 05:29:57;;;;;;;4.18;2.63;;;20.50;66.90;;;;;;4958672;28;20039;-75
2021/06/14 05:32:24;;;;;;;4.70;2.70;;;20.30;67.60;;;;;;4969400;28;20043;-75
2021/06/14 05:34:50;;;;;;;5.05;2.80;;;20.90;66.20;;;;;;4968380;28;20046;-75
2021/06/14 05:37:16;;;;;;;6.80;3.40;;;21.60;64.20;;;;;;4988622;28;20031;-75
2021/06/14 05:39:42;;;;;;;5.32;3.40;;;21.80;63.00;;;;;;4961092;28;20047;-77
2021/06/14 05:42:09;;;;;;;6.07;3.40;;;21.10;64.20;;;;;;4966636;28;20046;-79
2021/06/14 05:44:36;;;;;;;5.72;3.33;;;20.90;64.30;;;;;;4961230;28;20468;-77
2021/06/14 05:47:02;;;;;;;4.45;3.17;;;22.10;61.80;;;;;;4954390;28;20051;-79
2021/06/14 05:49:28;;;;;;;5.22;3.00;;;21.80;61.60;;;;;;4969399;28;20026;-77
2021/06/14 05:52:01;;;;;;;6.78;2.65;;;21.70;61.80;;;;;;4965542;28;20053;-77
2021/06/14 05:54:27;;;;;;;5.78;3.25;;;22.20;60.40;;;;;;4968118;28;20048;-77
2021/06/14 05:56:53;;;;;;;4.57;2.60;;;21.80;60.10;;;;;;4962602;28;20058;-77
2021/06/14 05:59:20;;;;;;;3.40;2.30;;;22.90;58.50;;;;;;4953819;28;20047;-76
2021/06/14 06:01:46;;;;;;;4.97;2.25;;;22.70;58.10;;;;;;4955302;28;20043;-74
2021/06/14 06:04:14;;;;;;;3.15;2.42;;;22.30;58.70;;;;;;4953837;28;20420;-76
2021/06/14 06:06:40;;;;;;;5.25;2.58;;;22.40;58.60;;;;;;4954595;28;20047;-77
2021/06/14 06:09:06;;;;;;;4.30;2.50;;;23.70;56.70;;;;;;4956377;28;20034;-77
2021/06/14 06:11:33;;;;;;;5.95;2.55;;;23.60;57.00;;;;;;4973903;28;20051;-76
2021/06/14 06:13:59;;;;;;;4.25;2.42;;;23.90;55.30;;;;;;4954990;28;20046;-75
2021/06/14 06:16:25;;;;;;;3.33;1.92;;;25.40;53.40;;;;;;4954788;28;20031;-74
2021/06/14 06:18:51;;;;;;;4.63;2.42;;;25.30;53.20;;;;;;4954663;28;20047;-75
2021/06/14 06:21:18;;;;;;;4.07;2.13;;;26.00;52.10;;;;;;4966509;28;20395;-74
2021/06/14 06:23:44;;;;;;;4.05;2.17;;;26.10;50.40;;;;;;4972918;28;20034;-74
2021/06/14 06:26:10;;;;;;;6.47;2.58;;;25.20;51.50;;;;;;4972703;28;20043;-74
2021/06/14 06:28:36;;;;;;;5.30;2.30;;;24.80;51.50;;;;;;4988155;28;20046;-75
2021/06/14 06:31:03;;;;;;;4.97;2.53;;;24.30;53.60;;;;;;4956411;28;20528;-75
2021/06/14 06:33:29;;;;;;;3.75;2.20;;;25.10;51.70;;;;;;4954267;28;20031;-75
2021/06/14 06:35:55;;;;;;;3.53;2.50;;;25.20;50.60;;;;;;4968396;28;20055;-75
2021/06/14 06:38:22;;;;;;;5.32;2.22;;;26.00;50.10;;;;;;4953886;28;20039;-74
2021/06/14 06:40:48;;;;;;;9.90;2.80;;;25.00;50.30;;;;;;4960369;28;20033;-73
2021/06/14 06:43:14;;;;;;;6.15;2.55;;;24.80;49.90;;;;;;4972692;28;20077;-75
2021/06/14 06:45:41;;;;;;;6.65;2.70;;;24.80;50.30;;;;;;4973419;28;20047;-75
2021/06/14 06:48:07;;;;;;;5.15;2.35;;;25.60;49.20;;;;;;4956642;28;20055;-73
2021/06/14 06:50:34;;;;;;;3.70;2.08;;;25.70;48.50;;;;;;4954649;28;20035;-73
2021/06/14 06:53:02;;;;;;;4.38;2.08;;;26.10;48.60;;;;;;4956942;28;20034;-73
2021/06/14 06:55:29;;;;;;;6.22;2.58;;;26.40;47.70;;;;;;4970598;28;20082;-75
2021/06/14 06:57:57;;;;;;;3.72;2.25;;;26.80;48.80;;;;;;4957051;28;20496;-75
2021/06/14 07:00:25;;;;;;;6.25;2.83;;;27.40;48.00;;;;;;4959036;28;20050;-74
2021/06/14 07:02:51;;;;;;;4.63;2.28;;;26.60;47.40;;;;;;4963740;28;20039;-76
2021/06/14 07:05:18;;;;;;;4.63;2.20;;;26.50;46.60;;;;;;4953544;28;20401;-73
2021/06/14 07:07:44;;;;;;;2.78;1.80;;;25.40;47.90;;;;;;4965436;28;20058;-76
2021/06/14 07:10:11;;;;;;;5.10;2.05;;;25.20;48.40;;;;;;4967364;28;20036;-76
2021/06/14 07:12:38;;;;;;;3.20;1.80;;;25.50;47.70;;;;;;4954230;28;20458;-75
2021/06/14 07:15:12;;;;;;;7.80;2.92;;;25.40;47.30;;;;;;4953909;28;20043;-75
2021/06/14 07:17:43;;;;;;;4.43;2.05;;;25.90;47.70;;;;;;4954351;29;20042;-76
2021/06/14 07:20:13;;;;;;;4.45;2.10;;;26.40;46.30;;;;;;4956880;28;20489;-76
2021/06/14 07:22:40;;;;;;;5.72;1.83;;;26.10;45.60;;;;;;4971933;28;20043;-76
2021/06/14 07:25:08;;;;;;;5.47;2.33;;;27.00;45.50;;;;;;4962433;28;20457;-75
2021/06/14 07:27:34;;;;;;;4.90;1.67;;;27.30;45.10;;;;;;4959486;28;20397;-74
2021/06/14 07:30:02;;;;;;;4.40;2.50;;;27.30;45.50;;;;;;4964476;28;20035;-75
2021/06/14 07:32:29;;;;;;;5.68;2.40;;;27.40;44.10;;;;;;4960695;28;20480;-77
2021/06/14 07:34:55;;;;;;;3.92;2.17;;;26.90;45.40;;;;;;4954752;28;20043;-77
2021/06/14 07:37:21;;;;;;;4.50;2.22;;;26.90;45.10;;;;;;4953537;28;20055;-76
2021/06/14 07:39:48;;;;;;;4.10;2.47;;;26.60;45.20;;;;;;4961995;28;20051;-76
2021/06/14 07:42:16;;;;;;;4.28;1.90;;;26.60;44.60;;;;;;4967289;28;20393;-75
2021/06/14 07:44:43;;;;;;;5.50;2.13;;;26.80;44.40;;;;;;4958607;28;20046;-75
2021/06/14 07:47:12;;;;;;;4.22;2.13;;;25.40;45.90;;;;;;4962561;28;20057;-75
2021/06/14 07:49:39;;;;;;;4.00;1.83;;;26.40;46.90;;;;;;4967259;28;20031;-75
2021/06/14 07:52:07;;;;;;;5.00;1.83;;;27.20;44.00;;;;;;4968841;28;20475;-75
2021/06/14 07:54:35;;;;;;;3.88;2.00;;;26.90;45.90;;;;;;4966633;28;20400;-76
2021/06/14 07:57:03;;;;;;;3.95;2.20;;;26.90;45.10;;;;;;4965273;28;20034;-75
2021/06/14 07:59:29;;;;;;;9.95;2.15;;;27.80;46.50;;;;;;4969809;28;20042;-75
2021/06/14 08:01:56;;;;;;;5.60;2.30;;;27.30;44.10;;;;;;4961502;28;20043;-75
2021/06/14 08:04:22;;;;;;;4.10;2.28;;;27.30;44.70;;;;;;4952950;28;20381;-76
2021/06/14 08:06:48;;;;;;;6.97;1.90;;;27.30;44.40;;;;;;4953342;28;20038;-76
2021/06/14 08:09:17;;;;;;;5.07;2.20;;;27.40;42.60;;;;;;4953470;28;20137;-76
2021/06/14 08:11:45;;;;;;;2.78;1.73;;;27.20;43.80;;;;;;4970964;28;20046;-76
2021/06/14 08:14:11;;;;;;;4.50;1.95;;;28.00;43.80;;;;;;4954339;28;20042;-73
2021/06/14 08:16:43;;;;;;;5.85;2.22;;;27.00;43.20;;;;;;4967205;28;20031;-74
2021/06/14 08:19:20;;;;;;;5.55;2.28;;;26.80;43.70;;;;;;4961976;28;20047;-76
2021/06/14 08:27:09;;;;;;;6.70;1.90;;;27.40;44.10;;;;;;4970238;28;20035;-75
2021/06/14 08:29:36;;;;;;;5.50;2.47;;;27.90;43.90;;;;;;4968899;28;20031;-75
2021/06/14 08:32:02;;;;;;;3.75;2.10;;;28.50;42.80;;;;;;4966482;28;20046;-74
2021/06/14 08:34:28;;;;;;;4.20;2.25;;;28.50;43.90;;;;;;4968832;28;20042;-75
2021/06/14 08:36:55;;;;;;;6.90;2.72;;;28.40;43.80;;;;;;4969986;28;20051;-75
2021/06/14 08:39:21;;;;;;;4.47;2.33;;;28.10;43.20;;;;;;4970267;28;20046;-75
2021/06/14 08:41:47;;;;;;;4.25;1.50;;;28.50;43.50;;;;;;4969902;28;20032;-75
2021/06/14 08:44:14;;;;;;;2.58;1.80;;;27.90;41.60;;;;;;4955832;28;20031;-73
2021/06/14 08:46:42;;;;;;;3.78;1.65;;;28.00;42.00;;;;;;4956807;28;20038;-75
2021/06/14 08:49:08;;;;;;;4.20;2.13;;;28.30;41.60;;;;;;4961250;28;20050;-74
2021/06/14 08:51:35;;;;;;;4.45;2.20;;;28.80;41.50;;;;;;4973160;28;20038;-74
2021/06/14 08:54:05;;;;;;;3.92;2.20;;;27.70;42.50;;;;;;4974798;28;20026;-74
2021/06/14 08:56:31;;;;;;;4.13;1.98;;;27.70;43.10;;;;;;4974905;28;20038;-73
2021/06/14 08:58:58;;;;;;;3.08;1.80;;;27.50;43.40;;;;;;4972535;28;20039;-73
2021/06/14 09:01:24;;;;;;;3.58;1.88;;;28.10;42.60;;;;;;4967937;28;20027;-74
2021/06/14 09:03:51;;;;;;;4.32;2.03;;;28.60;42.10;;;;;;4956468;28;20040;-74
2021/06/14 09:06:17;;;;;;;3.63;1.60;;;29.20;43.10;;;;;;4975070;28;20046;-73
2021/06/14 09:08:58;;;;;;;2.90;1.40;;;29.00;41.60;;;;;;4957212;28;20043;-73
2021/06/14 09:11:25;;;;;;;3.88;1.60;;;28.40;42.80;;;;;;4955734;28;20054;-74
2021/06/14 09:13:51;;;;;;;2.83;1.85;;;28.30;41.90;;;;;;4960566;28;20416;-74
2021/06/14 09:16:17;;;;;;;4.15;1.80;;;28.10;42.00;;;;;;4970423;28;20477;-74
2021/06/14 09:18:45;;;;;;;4.30;2.30;;;28.10;42.50;;;;;;4965587;28;20039;-74
2021/06/14 09:21:14;;;;;;;3.63;2.20;;;28.90;43.30;;;;;;4966245;28;20035;-74
2021/06/14 09:23:56;;;;;;;4.33;2.40;;;28.80;42.60;;;;;;4973023;28;20495;-75
2021/06/14 09:26:31;;;;;;;4.45;2.25;;;28.40;42.30;;;;;;4968579;28;20458;-74
2021/06/14 09:29:05;;;;;;;5.18;2.15;;;28.40;42.60;;;;;;4955310;28;20051;-75
2021/06/14 09:31:38;;;;;;;4.75;2.30;;;28.90;43.60;;;;;;4960791;28;20047;-75
2021/06/14 09:34:05;;;;;;;3.80;1.75;;;29.40;42.30;;;;;;4966825;28;20050;-74
2021/06/14 09:36:31;;;;;;;6.95;2.33;;;30.00;42.20;;;;;;4969834;28;20034;-75
2021/06/14 09:39:17;;;;;;;6.50;2.50;;;30.50;42.30;;;;;;4959624;28;20038;-76
2021/06/14 09:41:48;;;;;;;6.05;2.55;;;29.00;42.20;;;;;;4955146;28;20038;-75
2021/06/14 09:44:27;;;;;;;4.57;2.13;;;27.00;44.10;;;;;;4957763;28;20034;-74
2021/06/14 09:47:08;;;;;;;7.13;2.33;;;27.20;44.10;;;;;;4971104;28;20520;-74
2021/06/14 09:49:36;;;;;;;3.13;1.67;;;27.10;45.10;;;;;;4954858;28;20051;-73
2021/06/14 09:52:04;;;;;;;5.30;2.25;;;27.50;43.60;;;;;;4954749;28;20035;-74
2021/06/14 09:54:33;;;;;;;4.85;2.42;;;28.30;44.40;;;;;;4959448;28;20039;-75
2021/06/14 09:57:04;;;;;;;3.50;1.95;;;27.60;44.00;;;;;;4954683;28;20044;-74
2021/06/14 09:59:44;;;;;;;4.03;1.95;;;27.60;45.20;;;;;;4970482;28;20039;-74
2021/06/14 10:02:17;;;;;;;3.65;2.28;;;28.30;44.10;;;;;;4969486;28;20031;-74
2021/06/14 10:04:44;;;;;;;5.15;2.13;;;29.50;43.00;;;;;;4955227;28;20485;-76
2021/06/14 10:07:12;;;;;;;3.70;1.92;;;29.60;42.70;;;;;;4954455;28;20034;-75
2021/06/14 10:09:44;;;;;;;5.00;2.13;;;29.00;42.10;;;;;;4960244;28;20055;-75
2021/06/14 10:12:21;;;;;;;6.00;2.28;;;29.10;42.80;;;;;;4954699;28;20034;-75
2021/06/14 10:14:56;;;;;;;6.32;2.80;;;29.10;41.80;;;;;;4955018;28;20023;-74
2021/06/14 10:17:49;;;;;;;4.85;2.30;;;29.00;43.40;;;;;;4954847;28;20035;-73
2021/06/14 10:20:19;;;;;;;7.82;2.78;;;29.30;42.30;;;;;;4953480;28;20425;-74
2021/06/14 10:22:47;;;;;;;5.88;2.65;;;28.60;44.00;;;;;;4955905;28;20031;-75
2021/06/14 10:25:15;;;;;;;5.00;2.70;;;28.10;43.00;;;;;;4970394;28;20405;-75
2021/06/14 10:27:42;;;;;;;6.85;2.15;;;28.00;43.50;;;;;;4972704;28;20046;-75
2021/06/14 10:30:11;;;;;;;4.40;2.28;;;27.70;43.20;;;;;;4965723;28;20062;-76
2021/06/14 10:32:39;;;;;;;6.05;2.35;;;27.30;42.10;;;;;;4966179;28;20055;-75
2021/06/14 10:35:08;;;;;;;4.60;2.00;;;26.00;43.10;;;;;;4963263;28;20039;-75
2021/06/14 10:37:44;;;;;;;3.67;2.03;;;25.40;44.40;;;;;;4972080;28;20050;-73
2021/06/14 10:40:14;;;;;;;4.78;2.40;;;25.00;43.70;;;;;;4966337;28;20035;-75
2021/06/14 10:42:44;;;;;;;4.30;2.28;;;24.60;44.30;;;;;;4954505;28;20031;-74
2021/06/14 10:45:11;;;;;;;;;;;25.20;44.20;;;;;;4966730;28;20038;-75
2021/06/14 10:47:40;;;;;;;4.28;2.45;;;25.50;44.70;;;;;;4969335;28;19910;-73
2021/06/14 10:50:11;;;;;;;6.25;2.28;;;25.40;44.50;;;;;;4953897;28;20047;-73
2021/06/14 10:52:42;;;;;;;3.55;2.03;;;25.00;45.00;;;;;;4954972;28;20395;-72
2021/06/14 10:55:17;;;;;;;8.35;2.40;;;25.00;45.10;;;;;;4968516;28;20042;-75
2021/06/14 10:57:43;;;;;;;6.25;2.33;;;25.30;45.50;;;;;;4965206;28;20038;-74
2021/06/14 11:00:34;;;;;;;3.38;1.80;;;25.20;45.40;;;;;;4964019;28;20043;-74
2021/06/14 11:03:04;;;;;;;5.88;2.20;;;25.60;45.30;;;;;;4958713;28;20031;-76
2021/06/14 11:05:32;;;;;;;4.47;2.10;;;25.90;44.90;;;;;;4964902;28;20054;-75
2021/06/14 11:08:10;;;;;;;4.28;2.40;;;26.10;44.40;;;;;;4954275;28;20060;-76
2021/06/14 11:10:37;;;;;;;15.95;2.70;;;25.90;44.50;;;;;;4954107;28;20381;-76
2021/06/14 11:13:21;;;;;;;6.57;2.20;;;25.80;45.20;;;;;;4962924;28;20027;-73
2021/06/14 11:15:53;;;;;;;5.53;2.15;;;25.90;45.20;;;;;;4953605;28;20150;-75
2021/06/14 11:18:25;;;;;;;5.07;2.00;;;25.50;42.60;;;;;;4953440;28;20039;-75
2021/06/14 11:21:10;;;;;;;4.20;1.75;;;25.70;41.50;;;;;;4954065;28;20501;-74
2021/06/14 11:23:38;;;;;;;4.10;2.00;;;25.70;41.90;;;;;;4965946;28;20034;-72
2021/06/14 11:26:05;;;;;;;3.15;2.15;;;26.00;41.90;;;;;;4962564;28;20031;-74
2021/06/14 11:28:42;;;;;;;3.25;1.80;;;26.10;41.90;;;;;;4952984;28;20070;-73
2021/06/14 11:31:24;;;;;;;8.38;2.30;;;25.90;41.90;;;;;;4959924;28;20051;-76
2021/06/14 11:34:01;;;;;;;2.85;1.60;;;26.40;44.30;;;;;;4967575;28;20038;-75
2021/06/14 11:36:38;;;;;;;3.90;2.08;;;27.00;43.10;;;;;;4971532;28;20046;-77
2021/06/14 11:39:15;;;;;;;5.05;2.47;;;26.90;41.50;;;;;;4971267;28;20487;-73
2021/06/14 11:41:41;;;;;;;6.05;1.67;;;26.50;42.50;;;;;;4960125;28;20429;-76
2021/06/14 11:44:28;;;;;;;6.22;2.15;;;25.80;41.70;;;;;;4956826;28;20043;-76
2021/06/14 11:47:11;;;;;;;8.05;2.40;;;25.80;42.90;;;;;;4959451;28;20055;-75
2021/06/14 11:49:38;;;;;;;3.90;2.40;;;26.20;42.70;;;;;;4953794;28;20054;-73
2021/06/14 11:52:20;;;;;;;3.33;2.00;;;26.40;42.80;;;;;;4965034;28;20401;-75
2021/06/14 11:54:49;;;;;;;3.88;2.00;;;26.60;42.90;;;;;;4959810;28;20035;-76
2021/06/14 11:57:16;;;;;;;4.63;1.77;;;27.10;42.90;;;;;;4957517;28;20042;-76
2021/06/14 11:59:43;;;;;;;3.55;2.03;;;27.50;42.70;;;;;;4957762;28;20047;-75
2021/06/14 12:02:23;;;;;;;3.58;2.05;;;27.70;41.90;;;;;;4957124;28;20038;-76
2021/06/14 12:04:57;;;;;;;4.53;1.92;;;27.30;41.50;;;;;;4957539;28;20050;-75
2021/06/14 12:07:38;;;;;;;3.78;2.10;;;27.20;41.80;;;;;;4967469;28;20384;-76
2021/06/14 12:10:15;;;;;;;3.55;1.75;;;26.80;41.30;;;;;;4971587;28;20058;-76
2021/06/14 12:12:46;;;;;;;5.28;2.38;;;26.80;41.40;;;;;;4975734;28;20034;-76
2021/06/14 12:15:13;;;;;;;4.00;1.63;;;26.60;41.40;;;;;;4968356;28;20027;-76
2021/06/14 12:17:43;;;;;;;3.88;1.65;;;26.50;42.70;;;;;;4957247;28;20400;-76
2021/06/14 12:20:11;;;;;;;3.65;1.48;;;26.80;42.80;;;;;;4975223;28;20042;-76
2021/06/14 12:22:39;;;;;;;3.45;1.77;;;27.40;42.40;;;;;;4966717;28;20392;-74
2021/06/14 12:25:11;;;;;;;2.92;1.70;;;27.30;40.80;;;;;;4961289;28;20042;-76
2021/06/14 12:27:38;;;;;;;4.13;2.30;;;27.10;41.20;;;;;;4957226;28;20052;-75
2021/06/14 12:30:10;;;;;;;3.67;2.13;;;27.20;41.10;;;;;;4956455;28;20058;-75
2021/06/14 12:32:39;;;;;;;2.90;1.50;;;26.90;41.00;;;;;;4988451;28;20054;-75
2021/06/14 12:35:08;;;;;;;5.32;1.70;;;26.90;42.60;;;;;;4964223;28;20062;-73
2021/06/14 12:37:35;;;;;;;3.70;1.75;;;27.00;41.30;;;;;;4969019;28;20043;-75
2021/06/14 12:40:06;;;;;;;7.90;1.95;;;27.20;41.50;;;;;;4956472;28;20039;-74
2021/06/14 12:42:34;;;;;;;3.53;1.85;;;27.40;41.50;;;;;;4976030;28;20030;-75
2021/06/14 12:45:03;;;;;;;3.72;1.65;;;27.30;40.80;;;;;;4958911;28;20031;-75
2021/06/14 12:47:30;;;;;;;3.30;1.33;;;27.20;40.90;;;;;;4968087;28;20039;-74
2021/06/14 12:50:00;;;;;;;3.08;1.60;;;27.20;41.70;;;;;;4956780;28;20035;-74
2021/06/14 12:52:31;;;;;;;3.97;2.05;;;27.30;41.30;;;;;;4959091;28;20416;-77
2021/06/14 12:54:58;;;;;;;3.63;2.10;;;27.50;40.70;;;;;;4972674;28;20039;-75
2021/06/14 12:57:38;;;;;;;4.63;1.83;;;27.70;42.20;;;;;;4962879;28;20046;-74
2021/06/14 13:00:25;;;;;;;3.95;2.05;;;27.70;40.70;;;;;;4966318;28;20473;-75
2021/06/14 13:02:56;;;;;;;2.70;1.67;;;27.80;41.40;;;;;;4973823;28;20047;-75
2021/06/14 13:05:25;;;;;;;3.47;1.70;;;28.10;41.00;;;;;;4958462;28;20112;-74